sensor_id;sensor_type;location;lat;lon;timestamp;P1;durP1;ratioP1;P2;durP2;ratioP2
67090;SDS011;54007;55.818;49.058;2023-10-19T09:42:59;13.80;;;7.55;;
67090;SDS011;54007;55.818;49.058;2023-10-19T09:45:25;11.68;;;5.92;;
67090;SDS011;54007;55.818;49.058;2023-10-19T09:47:50;12.78;;;7.85;;
67090;SDS011;54007;55.818;49.058;2023-10-19T09:50:20;18.17;;;8.53;;
67090;SDS011;54007;55.818;49.058;2023-10-19T09:52:46;12.33;;;7.22;;
67090;SDS011;54007;55.818;49.058;2023-10-19T09:57:58;15.83;;;8.78;;
67090;SDS011;54007;55.818;49.058;2023-10-19T10:00:22;14.00;;;8.65;;
67090;SDS011;54007;55.818;49.058;2023-10-19T10:02:51;12.60;;;7.70;;
67090;SDS011;54007;55.818;49.058;2023-10-19T10:10:45;15.38;;;8.28;;
67090;SDS011;54007;55.818;49.058;2023-10-19T10:15:58;12.98;;;6.60;;
67090;SDS011;54007;55.818;49.058;2023-10-19T10:18:24;14.10;;;6.90;;
67090;SDS011;54007;55.818;49.058;2023-10-19T10:21:05;12.23;;;6.83;;
67090;SDS011;54007;55.818;49.058;2023-10-19T10:23:31;13.72;;;7.08;;
67090;SDS011;54007;55.818;49.058;2023-10-19T10:25:59;11.18;;;5.95;;
67090;SDS011;54007;55.818;49.058;2023-10-19T10:28:25;9.98;;;5.90;;
67090;SDS011;54007;55.818;49.058;2023-10-19T10:31:09;12.60;;;6.97;;
67090;SDS011;54007;55.818;49.058;2023-10-19T10:33:41;12.30;;;6.60;;
67090;SDS011;54007;55.818;49.058;2023-10-19T10:36:05;11.75;;;6.10;;
67090;SDS011;54007;55.818;49.058;2023-10-19T10:38:32;11.28;;;5.65;;
67090;SDS011;54007;55.818;49.058;2023-10-19T10:40:56;11.30;;;5.72;;
67090;SDS011;54007;55.818;49.058;2023-10-19T10:43:21;10.65;;;5.65;;
67090;SDS011;54007;55.818;49.058;2023-10-19T10:45:47;9.80;;;5.58;;
67090;SDS011;54007;55.818;49.058;2023-10-19T10:48:13;16.35;;;6.70;;
67090;SDS011;54007;55.818;49.058;2023-10-19T10:50:39;12.35;;;7.00;;
67090;SDS011;54007;55.818;49.058;2023-10-19T10:53:05;15.43;;;9.43;;
67090;SDS011;54007;55.818;49.058;2023-10-19T10:55:35;18.17;;;9.85;;
67090;SDS011;54007;55.818;49.058;2023-10-19T10:57:58;14.45;;;8.30;;
67090;SDS011;54007;55.818;49.058;2023-10-19T11:00:24;14.23;;;6.50;;
67090;SDS011;54007;55.818;49.058;2023-10-19T11:03:00;11.93;;;6.55;;
67090;SDS011;54007;55.818;49.058;2023-10-19T11:05:24;12.00;;;6.60;;
67090;SDS011;54007;55.818;49.058;2023-10-19T11:08:09;12.33;;;6.05;;
67090;SDS011;54007;55.818;49.058;2023-10-19T11:10:40;14.83;;;7.37;;
67090;SDS011;54007;55.818;49.058;2023-10-19T11:13:06;18.02;;;9.55;;
67090;SDS011;54007;55.818;49.058;2023-10-19T11:15:34;15.98;;;7.95;;
67090;SDS011;54007;55.818;49.058;2023-10-19T11:17:57;16.77;;;8.53;;
67090;SDS011;54007;55.818;49.058;2023-10-19T11:20:24;13.98;;;8.28;;
67090;SDS011;54007;55.818;49.058;2023-10-19T11:22:49;11.93;;;7.50;;
67090;SDS011;54007;55.818;49.058;2023-10-19T11:25:21;15.60;;;7.42;;
67090;SDS011;54007;55.818;49.058;2023-10-19T11:27:43;13.90;;;7.75;;
67090;SDS011;54007;55.818;49.058;2023-10-19T11:30:09;13.78;;;7.50;;
67090;SDS011;54007;55.818;49.058;2023-10-19T11:32:36;15.48;;;7.78;;
67090;SDS011;54007;55.818;49.058;2023-10-19T11:35:01;17.52;;;8.33;;
67090;SDS011;54007;55.818;49.058;2023-10-19T11:37:27;18.87;;;8.55;;
67090;SDS011;54007;55.818;49.058;2023-10-19T11:39:53;16.48;;;8.38;;
67090;SDS011;54007;55.818;49.058;2023-10-19T11:42:19;29.95;;;15.25;;
67090;SDS011;54007;55.818;49.058;2023-10-19T11:44:44;29.17;;;15.70;;
67090;SDS011;54007;55.818;49.058;2023-10-19T11:47:10;28.60;;;16.75;;
67090;SDS011;54007;55.818;49.058;2023-10-19T11:49:36;20.88;;;10.68;;
67090;SDS011;54007;55.818;49.058;2023-10-19T11:52:08;12.55;;;6.53;;
67090;SDS011;54007;55.818;49.058;2023-10-19T11:54:34;11.83;;;5.72;;
67090;SDS011;54007;55.818;49.058;2023-10-19T11:57:02;11.18;;;4.85;;
67090;SDS011;54007;55.818;49.058;2023-10-19T11:59:31;10.23;;;5.13;;
67090;SDS011;54007;55.818;49.058;2023-10-19T12:01:54;15.20;;;5.75;;
67090;SDS011;54007;55.818;49.058;2023-10-19T12:04:20;17.65;;;9.28;;
67090;SDS011;54007;55.818;49.058;2023-10-19T12:06:45;15.00;;;10.13;;
67090;SDS011;54007;55.818;49.058;2023-10-19T12:09:15;18.55;;;11.10;;
67090;SDS011;54007;55.818;49.058;2023-10-19T12:11:41;20.65;;;12.18;;
67090;SDS011;54007;55.818;49.058;2023-10-19T12:14:07;15.47;;;8.67;;
67090;SDS011;54007;55.818;49.058;2023-10-19T12:16:36;17.20;;;7.78;;
67090;SDS011;54007;55.818;49.058;2023-10-19T12:19:08;9.95;;;4.45;;
67090;SDS011;54007;55.818;49.058;2023-10-19T12:21:39;10.98;;;5.28;;
67090;SDS011;54007;55.818;49.058;2023-10-19T12:24:05;13.40;;;6.77;;
67090;SDS011;54007;55.818;49.058;2023-10-19T12:26:31;12.50;;;7.20;;
67090;SDS011;54007;55.818;49.058;2023-10-19T12:29:15;16.27;;;8.20;;
67090;SDS011;54007;55.818;49.058;2023-10-19T12:54:44;10.00;;;5.05;;
67090;SDS011;54007;55.818;49.058;2023-10-19T12:57:10;8.70;;;5.13;;
67090;SDS011;54007;55.818;49.058;2023-10-19T12:59:36;9.00;;;5.00;;
67090;SDS011;54007;55.818;49.058;2023-10-19T13:02:05;8.68;;;4.17;;
67090;SDS011;54007;55.818;49.058;2023-10-19T13:04:31;6.77;;;3.17;;
67090;SDS011;54007;55.818;49.058;2023-10-19T13:06:56;8.58;;;4.65;;
67090;SDS011;54007;55.818;49.058;2023-10-19T13:09:23;10.87;;;5.37;;
67090;SDS011;54007;55.818;49.058;2023-10-19T13:11:48;11.63;;;7.12;;
67090;SDS011;54007;55.818;49.058;2023-10-19T13:14:14;15.60;;;8.48;;
67090;SDS011;54007;55.818;49.058;2023-10-19T13:16:40;14.13;;;8.33;;
67090;SDS011;54007;55.818;49.058;2023-10-19T13:19:06;14.75;;;10.13;;
67090;SDS011;54007;55.818;49.058;2023-10-19T13:21:34;19.37;;;9.15;;
67090;SDS011;54007;55.818;49.058;2023-10-19T13:24:00;18.23;;;11.37;;
67090;SDS011;54007;55.818;49.058;2023-10-19T13:26:30;16.93;;;9.40;;
67090;SDS011;54007;55.818;49.058;2023-10-19T13:28:56;16.12;;;8.05;;
67090;SDS011;54007;55.818;49.058;2023-10-19T13:31:22;11.80;;;4.87;;
67090;SDS011;54007;55.818;49.058;2023-10-19T13:33:47;8.00;;;3.15;;
67090;SDS011;54007;55.818;49.058;2023-10-19T13:36:13;9.57;;;4.23;;
67090;SDS011;54007;55.818;49.058;2023-10-19T13:38:39;8.13;;;3.40;;
67090;SDS011;54007;55.818;49.058;2023-10-19T13:41:05;7.78;;;3.10;;
67090;SDS011;54007;55.818;49.058;2023-10-19T13:43:38;6.30;;;3.07;;
67090;SDS011;54007;55.818;49.058;2023-10-19T13:46:03;9.15;;;2.85;;
67090;SDS011;54007;55.818;49.058;2023-10-19T13:48:29;7.22;;;3.00;;
67090;SDS011;54007;55.818;49.058;2023-10-19T13:50:55;8.03;;;3.30;;
67090;SDS011;54007;55.818;49.058;2023-10-19T13:53:20;8.38;;;3.50;;
67090;SDS011;54007;55.818;49.058;2023-10-19T13:55:46;10.58;;;4.55;;
67090;SDS011;54007;55.818;49.058;2023-10-19T13:58:12;9.67;;;4.90;;
67090;SDS011;54007;55.818;49.058;2023-10-19T14:00:41;11.38;;;3.70;;
67090;SDS011;54007;55.818;49.058;2023-10-19T14:03:07;8.13;;;3.40;;
67090;SDS011;54007;55.818;49.058;2023-10-19T14:05:36;6.90;;;2.63;;
67090;SDS011;54007;55.818;49.058;2023-10-19T14:08:01;6.80;;;3.27;;
67090;SDS011;54007;55.818;49.058;2023-10-19T14:10:27;12.73;;;6.83;;
67090;SDS011;54007;55.818;49.058;2023-10-19T14:12:53;15.63;;;7.80;;
67090;SDS011;54007;55.818;49.058;2023-10-19T14:15:19;13.93;;;6.80;;
67090;SDS011;54007;55.818;49.058;2023-10-19T14:17:45;11.75;;;5.33;;
67090;SDS011;54007;55.818;49.058;2023-10-19T14:20:10;8.95;;;4.58;;
67090;SDS011;54007;55.818;49.058;2023-10-19T14:22:40;8.10;;;4.40;;
67090;SDS011;54007;55.818;49.058;2023-10-19T14:25:06;7.40;;;3.70;;
67090;SDS011;54007;55.818;49.058;2023-10-19T14:27:31;8.33;;;3.70;;
67090;SDS011;54007;55.818;49.058;2023-10-19T14:29:57;7.03;;;3.25;;
67090;SDS011;54007;55.818;49.058;2023-10-19T14:32:23;7.75;;;2.62;;
67090;SDS011;54007;55.818;49.058;2023-10-19T14:34:49;7.73;;;3.60;;
67090;SDS011;54007;55.818;49.058;2023-10-19T14:37:14;5.72;;;3.40;;
67090;SDS011;54007;55.818;49.058;2023-10-19T14:39:40;6.20;;;3.30;;
67090;SDS011;54007;55.818;49.058;2023-10-19T14:42:06;6.97;;;3.72;;
67090;SDS011;54007;55.818;49.058;2023-10-19T14:44:36;6.42;;;3.33;;
67090;SDS011;54007;55.818;49.058;2023-10-19T14:47:02;6.40;;;3.07;;
67090;SDS011;54007;55.818;49.058;2023-10-19T14:49:28;5.70;;;3.10;;
67090;SDS011;54007;55.818;49.058;2023-10-19T14:51:53;7.20;;;3.58;;
67090;SDS011;54007;55.818;49.058;2023-10-19T14:54:19;7.00;;;3.53;;
67090;SDS011;54007;55.818;49.058;2023-10-19T14:56:51;6.37;;;3.15;;
67090;SDS011;54007;55.818;49.058;2023-10-19T14:59:21;7.08;;;3.65;;
67090;SDS011;54007;55.818;49.058;2023-10-19T15:01:47;8.63;;;3.37;;
67090;SDS011;54007;55.818;49.058;2023-10-19T15:04:12;7.05;;;3.72;;
67090;SDS011;54007;55.818;49.058;2023-10-19T15:06:38;8.40;;;3.33;;
67090;SDS011;54007;55.818;49.058;2023-10-19T15:09:04;7.17;;;3.30;;
67090;SDS011;54007;55.818;49.058;2023-10-19T15:11:30;6.70;;;3.08;;
67090;SDS011;54007;55.818;49.058;2023-10-19T15:13:56;8.53;;;3.67;;
67090;SDS011;54007;55.818;49.058;2023-10-19T15:16:22;6.78;;;3.50;;
67090;SDS011;54007;55.818;49.058;2023-10-19T15:18:48;7.62;;;3.90;;
67090;SDS011;54007;55.818;49.058;2023-10-19T15:21:14;6.13;;;3.23;;
67090;SDS011;54007;55.818;49.058;2023-10-19T15:23:39;6.65;;;3.08;;
67090;SDS011;54007;55.818;49.058;2023-10-19T15:26:05;9.60;;;3.50;;
67090;SDS011;54007;55.818;49.058;2023-10-19T15:28:31;7.40;;;3.83;;
67090;SDS011;54007;55.818;49.058;2023-10-19T15:30:57;7.42;;;3.60;;
67090;SDS011;54007;55.818;49.058;2023-10-19T15:33:23;7.17;;;3.33;;
67090;SDS011;54007;55.818;49.058;2023-10-19T15:35:49;7.50;;;3.00;;
67090;SDS011;54007;55.818;49.058;2023-10-19T15:38:15;6.47;;;3.37;;
67090;SDS011;54007;55.818;49.058;2023-10-19T15:40:40;6.27;;;3.60;;
67090;SDS011;54007;55.818;49.058;2023-10-19T15:43:06;8.43;;;3.50;;
67090;SDS011;54007;55.818;49.058;2023-10-19T15:45:32;11.05;;;3.80;;
67090;SDS011;54007;55.818;49.058;2023-10-19T15:47:58;14.53;;;5.37;;
67090;SDS011;54007;55.818;49.058;2023-10-19T15:50:24;10.53;;;4.08;;
67090;SDS011;54007;55.818;49.058;2023-10-19T15:52:50;9.93;;;3.60;;
67090;SDS011;54007;55.818;49.058;2023-10-19T15:55:15;7.97;;;3.75;;
67090;SDS011;54007;55.818;49.058;2023-10-19T15:57:41;13.75;;;4.00;;
67090;SDS011;54007;55.818;49.058;2023-10-19T16:00:08;9.87;;;4.73;;
67090;SDS011;54007;55.818;49.058;2023-10-19T16:02:37;6.75;;;3.65;;
67090;SDS011;54007;55.818;49.058;2023-10-19T16:05:03;8.90;;;4.35;;
67090;SDS011;54007;55.818;49.058;2023-10-19T16:07:29;6.47;;;3.93;;
67090;SDS011;54007;55.818;49.058;2023-10-19T16:09:54;8.38;;;3.90;;
67090;SDS011;54007;55.818;49.058;2023-10-19T16:12:20;11.88;;;5.72;;
67090;SDS011;54007;55.818;49.058;2023-10-19T16:14:46;8.83;;;4.30;;
67090;SDS011;54007;55.818;49.058;2023-10-19T16:17:12;7.20;;;3.90;;
67090;SDS011;54007;55.818;49.058;2023-10-19T16:19:38;10.37;;;5.20;;
67090;SDS011;54007;55.818;49.058;2023-10-19T16:22:04;6.35;;;3.33;;
67090;SDS011;54007;55.818;49.058;2023-10-19T16:24:30;7.83;;;3.85;;
67090;SDS011;54007;55.818;49.058;2023-10-19T16:26:55;7.47;;;3.87;;
67090;SDS011;54007;55.818;49.058;2023-10-19T16:29:24;8.65;;;3.80;;
67090;SDS011;54007;55.818;49.058;2023-10-19T16:31:50;9.55;;;4.00;;
67090;SDS011;54007;55.818;49.058;2023-10-19T16:34:16;9.60;;;4.20;;
67090;SDS011;54007;55.818;49.058;2023-10-19T16:36:42;9.18;;;3.95;;
67090;SDS011;54007;55.818;49.058;2023-10-19T16:39:08;8.53;;;4.53;;
67090;SDS011;54007;55.818;49.058;2023-10-19T16:41:34;8.20;;;3.70;;
67090;SDS011;54007;55.818;49.058;2023-10-19T16:44:02;8.80;;;4.10;;
67090;SDS011;54007;55.818;49.058;2023-10-19T16:46:28;7.70;;;3.77;;
67090;SDS011;54007;55.818;49.058;2023-10-19T16:48:54;10.03;;;4.40;;
67090;SDS011;54007;55.818;49.058;2023-10-19T16:51:19;7.80;;;4.30;;
67090;SDS011;54007;55.818;49.058;2023-10-19T16:53:45;7.73;;;4.00;;
67090;SDS011;54007;55.818;49.058;2023-10-19T16:56:11;8.18;;;3.92;;
67090;SDS011;54007;55.818;49.058;2023-10-19T16:58:37;9.80;;;3.90;;
